Time;durP1;ratioP1;P1;durP2;ratioP2;P2;SDS_P1;SDS_P2;PMS_P1;PMS_P2;Temp;Humidity;BMP_temperature;BMP_pressure;BME280_temperature;BME280_humidity;BME280_pressure;Samples;Min_cycle;Max_cycle;Signal;HPM_P1;HPM_P2
2022/09/18 00:02:23;;;;;;;9.33;9.03;;;8.60;99.90;;;;;;5081538;28;20288;-84
2022/09/18 00:04:51;;;;;;;9.60;9.30;;;8.60;99.90;;;;;;5081519;28;20230;-83
2022/09/18 00:07:21;;;;;;;9.60;9.30;;;8.60;99.90;;;;;;5081156;28;20230;-83
2022/09/18 00:09:51;;;;;;;9.50;9.20;;;8.60;99.90;;;;;;5082506;28;20233;-83
2022/09/18 00:12:22;;;;;;;9.70;9.40;;;8.60;99.90;;;;;;5082126;28;20313;-83
2022/09/18 00:14:50;;;;;;;9.37;9.07;;;8.50;99.90;;;;;;5082016;28;20230;-83
2022/09/18 00:17:38;;;;;;;9.77;9.47;;;8.60;99.90;;;;;;5082478;28;20290;-84
2022/09/18 00:20:08;;;;;;;9.70;9.40;;;8.60;99.90;;;;;;5088436;28;20257;-84
2022/09/18 00:22:36;;;;;;;9.70;9.40;;;8.50;99.90;;;;;;5087340;28;20264;-83
2022/09/18 00:25:05;;;;;;;9.60;9.30;;;8.50;99.90;;;;;;5085251;28;20298;-84
2022/09/18 00:27:35;;;;;;;9.60;9.30;;;8.50;99.90;;;;;;5084601;28;20226;-83
2022/09/18 00:30:03;;;;;;;9.60;9.30;;;8.50;99.90;;;;;;5085998;28;20226;-83
2022/09/18 00:32:35;;;;;;;9.50;9.20;;;8.60;99.90;;;;;;5090746;28;20230;-84
2022/09/18 00:35:05;;;;;;;9.50;9.20;;;8.60;99.90;;;;;;5089453;28;20226;-83
2022/09/18 00:37:34;;;;;;;9.43;9.13;;;8.60;99.90;;;;;;5087044;28;20230;-84
2022/09/18 00:40:03;;;;;;;9.53;9.23;;;8.70;99.90;;;;;;5086676;28;20234;-82
2022/09/18 00:42:32;;;;;;;9.33;9.03;;;8.70;99.90;;;;;;5084602;28;20230;-82
2022/09/18 00:45:12;;;;;;;9.43;9.13;;;8.60;99.90;;;;;;5082375;28;20290;-83
2022/09/18 00:47:50;;;;;;;9.40;9.10;;;8.70;99.90;;;;;;5082319;28;20233;-82
2022/09/18 00:50:21;;;;;;;9.40;9.10;;;8.70;99.90;;;;;;5081236;28;20316;-83
2022/09/18 00:52:56;;;;;;;9.30;9.00;;;8.80;99.90;;;;;;5081810;28;20241;-82
2022/09/18 00:55:31;;;;;;;9.30;9.00;;;8.80;99.90;;;;;;5080898;28;20241;-84
2022/09/18 00:58:04;;;;;;;9.40;9.10;;;8.80;99.90;;;;;;5081639;28;20222;-84
2022/09/18 01:00:39;;;;;;;9.50;9.20;;;8.80;99.90;;;;;;5081166;28;20321;-84
2022/09/18 01:03:09;;;;;;;9.23;8.93;;;8.90;99.90;;;;;;5081690;28;20233;-83
2022/09/18 01:05:53;;;;;;;9.40;9.10;;;8.90;99.90;;;;;;5084096;28;20249;-85
2022/09/18 01:08:37;;;;;;;9.40;9.10;;;9.00;99.90;;;;;;5084715;28;21089;-84
2022/09/18 01:11:28;;;;;;;9.33;9.03;;;9.00;99.90;;;;;;5085014;28;20309;-84
2022/09/18 01:14:11;;;;;;;9.20;8.90;;;9.00;99.90;;;;;;5085861;28;20313;-84
2022/09/18 01:16:53;;;;;;;9.50;9.20;;;9.00;99.90;;;;;;5102547;28;20278;-82
2022/09/18 01:19:52;;;;;;;9.50;9.20;;;9.10;99.90;;;;;;5102352;28;20245;-78
2022/09/18 01:22:34;;;;;;;9.40;9.10;;;9.00;99.90;;;;;;5103126;28;20214;-79
2022/09/18 01:25:19;;;;;;;9.50;9.20;;;9.00;99.90;;;;;;5102767;28;20221;-80
2022/09/18 01:28:16;;;;;;;9.50;9.20;;;9.00;99.90;;;;;;5102518;28;20302;-81
2022/09/18 01:30:46;;;;;;;9.47;9.17;;;9.10;99.90;;;;;;5102985;28;20261;-80
2022/09/18 01:33:20;;;;;;;9.17;8.87;;;9.10;99.90;;;;;;5102457;28;20234;-80
2022/09/18 01:35:52;;;;;;;9.50;9.20;;;9.10;99.90;;;;;;5101607;28;20269;-81
2022/09/18 01:38:31;;;;;;;9.43;9.13;;;9.10;99.90;;;;;;5101517;28;20244;-81
2022/09/18 01:41:10;;;;;;;9.50;9.20;;;9.10;99.90;;;;;;5102077;28;20244;-81
2022/09/18 01:43:47;;;;;;;9.67;9.37;;;9.10;99.90;;;;;;5100377;28;20258;-82
2022/09/18 01:46:18;;;;;;;9.50;9.20;;;9.10;99.90;;;;;;5090480;28;20260;-82
2022/09/18 01:48:55;;;;;;;9.53;9.23;;;9.00;99.90;;;;;;5091401;28;20289;-85
2022/09/18 01:51:27;;;;;;;9.60;9.30;;;9.00;99.90;;;;;;5089751;28;20317;-83
2022/09/18 01:54:03;;;;;;;9.60;9.30;;;9.00;99.90;;;;;;5087753;28;20230;-83
2022/09/18 01:56:41;;;;;;;9.67;9.37;;;9.00;99.90;;;;;;5087494;28;20261;-83
2022/09/18 01:59:20;;;;;;;9.60;9.30;;;9.00;99.90;;;;;;5088884;28;20222;-82
2022/09/18 02:01:51;;;;;;;9.50;9.20;;;9.00;99.90;;;;;;5088063;28;20229;-82
2022/09/18 02:04:28;;;;;;;9.50;9.20;;;9.00;99.90;;;;;;5086643;28;20240;-82
2022/09/18 02:07:05;;;;;;;9.50;9.20;;;8.90;99.90;;;;;;5086183;28;20234;-83
2022/09/18 02:09:34;;;;;;;9.40;9.10;;;8.90;99.90;;;;;;5085615;28;20244;-82
2022/09/18 02:12:04;;;;;;;9.30;9.00;;;8.90;99.90;;;;;;5085854;28;20253;-83
2022/09/18 02:14:42;;;;;;;9.50;9.20;;;9.00;99.90;;;;;;5092797;28;20234;-83
2022/09/18 02:17:20;;;;;;;9.40;9.10;;;9.00;99.90;;;;;;5089254;28;20254;-82
2022/09/18 02:19:59;;;;;;;9.50;9.20;;;9.00;99.90;;;;;;5087052;28;20261;-83
2022/09/18 02:22:38;;;;;;;9.40;9.10;;;9.00;99.90;;;;;;5087191;28;20325;-83
2022/09/18 02:25:09;;;;;;;9.50;9.20;;;9.00;99.90;;;;;;5090004;28;20298;-83
2022/09/18 02:27:38;;;;;;;9.50;9.20;;;9.00;99.90;;;;;;5086850;28;20313;-83
2022/09/18 02:30:12;;;;;;;9.40;9.10;;;9.00;99.90;;;;;;5086090;28;20232;-83
2022/09/18 02:32:46;;;;;;;9.33;9.03;;;9.00;99.90;;;;;;5086170;28;20232;-82
2022/09/18 02:35:14;;;;;;;9.27;8.97;;;9.00;99.90;;;;;;5084864;28;20226;-83
2022/09/18 02:37:55;;;;;;;9.40;9.10;;;9.00;99.90;;;;;;5084652;28;20302;-83
2022/09/18 02:40:41;;;;;;;9.40;9.10;;;9.00;99.90;;;;;;5068014;28;20214;-83
2022/09/18 02:43:35;;;;;;;9.27;8.97;;;9.00;99.90;;;;;;5085099;28;20219;-83
2022/09/18 02:46:16;;;;;;;9.60;9.30;;;9.10;99.90;;;;;;5083473;28;20300;-82
2022/09/18 02:49:03;;;;;;;9.43;9.13;;;9.10;99.90;;;;;;5084148;28;20222;-83
2022/09/18 02:51:40;;;;;;;9.37;9.07;;;9.10;99.90;;;;;;5084201;28;20226;-82
2022/09/18 02:54:18;;;;;;;9.57;9.27;;;9.10;99.90;;;;;;5084219;28;20320;-83
2022/09/18 02:56:55;;;;;;;9.57;9.27;;;9.10;99.90;;;;;;5083295;28;20320;-83
2022/09/18 02:59:33;;;;;;;9.67;9.37;;;9.10;99.90;;;;;;5063368;28;20237;-83
2022/09/18 03:02:11;;;;;;;9.80;9.50;;;9.10;99.90;;;;;;5063615;28;20221;-83
2022/09/18 03:04:43;;;;;;;9.50;9.20;;;9.10;99.90;;;;;;5063507;28;20274;-83
2022/09/18 03:07:13;;;;;;;9.80;9.50;;;9.10;99.90;;;;;;5063585;28;20322;-83
2022/09/18 03:09:41;;;;;;;9.80;9.50;;;9.10;99.90;;;;;;5063140;28;20232;-83
2022/09/18 03:12:10;;;;;;;9.60;9.30;;;9.10;99.90;;;;;;5063333;28;20244;-83
2022/09/18 03:14:39;;;;;;;9.60;9.30;;;9.20;99.90;;;;;;5085664;28;20297;-82
2022/09/18 03:17:20;;;;;;;9.37;9.07;;;9.20;99.90;;;;;;5088793;28;20254;-83
2022/09/18 03:19:48;;;;;;;9.60;9.30;;;9.20;99.90;;;;;;5084900;28;20234;-83
2022/09/18 03:22:16;;;;;;;9.60;9.30;;;9.20;99.90;;;;;;5084903;28;20258;-83
2022/09/18 03:24:45;;;;;;;9.57;9.27;;;9.20;99.90;;;;;;5084147;28;20252;-82
2022/09/18 03:27:13;;;;;;;9.70;9.40;;;9.20;99.90;;;;;;5079682;22;20283;-82
2022/09/18 03:29:40;;;;;;;9.50;9.20;;;9.20;99.90;;;;;;5013219;28;20264;-82
2022/09/18 03:32:09;;;;;;;9.50;9.20;;;9.30;99.90;;;;;;5048144;28;20323;-82
2022/09/18 03:34:37;;;;;;;9.60;9.30;;;9.30;99.90;;;;;;4999965;28;21059;-82
2022/09/18 03:37:04;;;;;;;9.57;9.27;;;9.30;99.90;;;;;;5000056;28;20305;-82
2022/09/18 03:39:33;;;;;;;9.50;9.20;;;9.30;99.90;;;;;;5019426;28;20293;-82
2022/09/18 03:42:03;;;;;;;9.47;9.17;;;9.30;99.90;;;;;;5056431;28;20240;-82
2022/09/18 03:44:32;;;;;;;9.40;9.10;;;9.30;99.90;;;;;;4999723;28;20332;-82
2022/09/18 03:47:02;;;;;;;9.80;9.50;;;9.30;99.90;;;;;;4999550;28;20298;-82
2022/09/18 03:49:44;;;;;;;9.53;9.23;;;9.40;99.90;;;;;;4999719;28;20225;-82
2022/09/18 03:52:12;;;;;;;9.50;9.20;;;9.40;99.90;;;;;;5000043;28;20255;-81
2022/09/18 03:54:39;;;;;;;9.43;9.13;;;9.40;99.90;;;;;;4999306;28;20281;-82
2022/09/18 03:57:08;;;;;;;9.30;9.00;;;9.40;99.90;;;;;;4999377;28;20237;-82
2022/09/18 03:59:55;;;;;;;9.30;9.00;;;9.40;99.90;;;;;;5000059;28;20229;-82
2022/09/18 04:02:44;;;;;;;9.23;8.93;;;9.40;99.90;;;;;;4999171;28;20327;-81
2022/09/18 04:08:55;;;;;;;9.50;9.20;;;9.40;99.90;;;;;;4986833;28;20221;-79
2022/09/18 04:11:22;;;;;;;9.50;9.20;;;9.40;99.90;;;;;;5008272;28;20248;-80
2022/09/18 04:13:50;;;;;;;9.30;9.00;;;9.40;99.90;;;;;;5012200;28;20220;-82
2022/09/18 04:16:20;;;;;;;9.40;9.10;;;9.40;99.90;;;;;;5005841;28;20311;-81
2022/09/18 04:18:49;;;;;;;9.40;9.10;;;9.40;99.90;;;;;;5002551;28;20324;-82
2022/09/18 04:21:37;;;;;;;9.43;9.13;;;9.40;99.90;;;;;;5000757;28;20243;-82
2022/09/18 04:24:06;;;;;;;9.37;9.07;;;9.40;99.90;;;;;;4999880;28;20268;-80
2022/09/18 04:26:35;;;;;;;9.33;9.03;;;9.40;99.90;;;;;;4998191;28;20348;-81
2022/09/18 04:29:05;;;;;;;9.70;9.40;;;9.40;99.90;;;;;;4999241;28;20237;-81
2022/09/18 04:31:37;;;;;;;9.40;9.10;;;9.30;99.90;;;;;;4998789;28;20271;-81
2022/09/18 04:34:06;;;;;;;9.50;9.20;;;9.30;99.90;;;;;;4998804;28;20233;-82
2022/09/18 04:36:43;;;;;;;9.50;9.20;;;9.40;99.90;;;;;;4998110;28;20228;-81
2022/09/18 04:39:13;;;;;;;9.80;9.50;;;9.40;99.90;;;;;;4998487;28;20236;-81
2022/09/18 04:41:44;;;;;;;9.60;9.30;;;9.40;99.90;;;;;;4998977;28;20236;-80
2022/09/18 04:44:12;;;;;;;9.70;9.40;;;9.40;99.90;;;;;;4998201;28;20324;-80
2022/09/18 04:46:41;;;;;;;9.97;9.67;;;9.40;99.90;;;;;;4998169;28;20243;-81
2022/09/18 04:49:11;;;;;;;9.70;9.40;;;9.40;99.90;;;;;;4998914;28;20286;-81
2022/09/18 04:51:49;;;;;;;9.80;9.50;;;9.40;99.90;;;;;;4999133;28;20239;-81
2022/09/18 04:54:19;;;;;;;9.70;9.40;;;9.40;99.90;;;;;;4998957;28;20245;-80
2022/09/18 04:56:48;;;;;;;9.53;9.23;;;9.40;99.90;;;;;;4999029;28;20784;-81
2022/09/18 04:59:17;;;;;;;9.70;9.40;;;9.40;99.90;;;;;;4999366;28;20247;-82
2022/09/18 05:01:47;;;;;;;9.37;9.07;;;9.40;99.90;;;;;;4999316;28;20328;-81
2022/09/18 05:04:16;;;;;;;9.30;9.00;;;9.40;99.90;;;;;;4998722;28;20260;-81
2022/09/18 05:06:55;;;;;;;9.30;9.00;;;9.40;99.90;;;;;;4997973;28;20241;-80
2022/09/18 05:09:25;;;;;;;9.30;9.00;;;9.40;99.90;;;;;;4998712;28;20243;-81
2022/09/18 05:11:53;;;;;;;9.40;9.10;;;9.40;99.90;;;;;;4998856;28;20237;-82
2022/09/18 05:14:24;;;;;;;9.20;8.90;;;9.40;99.90;;;;;;4998646;28;20240;-81
2022/09/18 05:16:53;;;;;;;9.63;9.33;;;9.40;99.90;;;;;;4998447;28;20239;-81
2022/09/18 05:19:22;;;;;;;9.60;9.30;;;9.40;99.90;;;;;;4998084;28;20275;-81
2022/09/18 05:21:54;;;;;;;9.67;9.37;;;9.50;99.90;;;;;;4999031;28;20275;-81
2022/09/18 05:24:22;;;;;;;9.63;9.33;;;9.50;99.90;;;;;;4999022;28;20229;-80
2022/09/18 05:26:50;;;;;;;9.57;9.27;;;9.60;99.90;;;;;;4998923;28;20225;-82
2022/09/18 05:29:19;;;;;;;9.80;9.50;;;9.60;99.90;;;;;;4998931;28;20264;-81
2022/09/18 05:31:49;;;;;;;9.60;9.30;;;9.60;99.90;;;;;;4998442;28;20617;-81
2022/09/18 05:34:18;;;;;;;9.60;9.30;;;9.60;99.90;;;;;;5001337;28;20240;-81
2022/09/18 05:36:47;;;;;;;9.50;9.20;;;9.60;99.90;;;;;;4998946;28;20323;-81
2022/09/18 05:39:26;;;;;;;9.37;9.07;;;9.70;99.90;;;;;;4998914;28;20243;-82
2022/09/18 05:41:55;;;;;;;9.50;9.20;;;9.70;99.90;;;;;;4999166;28;21054;-81
2022/09/18 05:44:25;;;;;;;9.37;9.07;;;9.80;99.90;;;;;;4997260;28;20225;-80
2022/09/18 05:46:54;;;;;;;9.50;9.20;;;9.70;99.90;;;;;;4997535;28;20328;-81
2022/09/18 05:49:23;;;;;;;9.60;9.30;;;9.70;99.90;;;;;;4998063;28;20327;-82
2022/09/18 05:51:53;;;;;;;9.40;9.10;;;9.70;99.90;;;;;;4999981;28;20297;-81
2022/09/18 05:54:35;;;;;;;9.20;8.90;;;9.70;99.90;;;;;;5000639;28;20248;-81
2022/09/18 05:57:02;;;;;;;9.20;8.90;;;9.60;99.90;;;;;;5001440;28;20244;-81
2022/09/18 05:59:30;;;;;;;9.30;9.00;;;9.60;99.90;;;;;;5001523;28;20232;-81
2022/09/18 06:01:59;;;;;;;9.37;9.07;;;9.70;99.90;;;;;;5000939;28;20232;-81
2022/09/18 06:04:30;;;;;;;9.30;9.00;;;9.60;99.90;;;;;;5000749;28;20260;-80
2022/09/18 06:07:01;;;;;;;9.50;9.20;;;9.60;99.90;;;;;;5001086;28;20279;-85
2022/09/18 06:09:30;;;;;;;9.17;8.87;;;9.60;99.90;;;;;;5004231;28;20244;-81
2022/09/18 06:12:01;;;;;;;9.33;9.03;;;9.60;99.90;;;;;;5003892;28;20229;-81
2022/09/18 06:14:37;;;;;;;9.27;8.97;;;9.60;99.90;;;;;;5004714;28;20319;-82
2022/09/18 06:17:05;;;;;;;9.20;8.90;;;9.60;99.90;;;;;;5002996;28;20264;-80
2022/09/18 06:19:34;;;;;;;9.30;9.00;;;9.60;99.90;;;;;;5002275;28;20229;-83
2022/09/18 06:22:04;;;;;;;9.20;8.90;;;9.60;99.90;;;;;;4999164;28;20255;-81
2022/09/18 06:24:42;;;;;;;9.30;9.00;;;9.60;99.90;;;;;;5002129;28;20236;-83
2022/09/18 06:27:11;;;;;;;9.30;9.00;;;9.60;99.90;;;;;;5001110;28;20224;-81
2022/09/18 06:29:42;;;;;;;9.43;9.13;;;9.60;99.90;;;;;;5004010;28;20305;-82
2022/09/18 06:32:13;;;;;;;9.20;8.90;;;9.60;99.90;;;;;;5002031;28;20263;-81
2022/09/18 06:34:42;;;;;;;9.20;8.90;;;9.60;99.90;;;;;;5001525;28;20225;-83
2022/09/18 06:37:12;;;;;;;9.30;9.00;;;9.60;99.90;;;;;;5001876;28;20229;-82
2022/09/18 06:39:43;;;;;;;9.17;8.87;;;9.60;99.90;;;;;;5001669;28;20225;-82
2022/09/18 06:42:11;;;;;;;9.07;8.77;;;9.60;99.90;;;;;;5002056;28;20272;-83
2022/09/18 06:44:40;;;;;;;9.00;8.70;;;9.60;99.90;;;;;;5001873;28;20241;-81
2022/09/18 06:47:10;;;;;;;9.00;8.70;;;9.70;99.90;;;;;;5002909;28;21000;-81
2022/09/18 06:49:39;;;;;;;8.80;8.57;;;9.60;99.90;;;;;;5005879;28;20244;-83
2022/09/18 06:52:09;;;;;;;8.93;8.63;;;9.70;99.90;;;;;;5013217;28;20232;-79
2022/09/18 06:54:38;;;;;;;8.97;8.67;;;9.70;99.90;;;;;;5011145;28;20233;-81
2022/09/18 06:57:09;;;;;;;8.93;8.63;;;9.70;99.90;;;;;;5002598;28;20253;-81
2022/09/18 06:59:37;;;;;;;8.63;8.43;;;9.70;99.90;;;;;;5003311;28;20306;-82
2022/09/18 07:02:16;;;;;;;9.00;8.70;;;9.70;99.90;;;;;;5002863;28;20237;-84
2022/09/18 07:07:52;;;;;;;8.70;8.50;;;9.80;99.90;;;;;;5009065;28;20233;-86
2022/09/18 07:10:27;;;;;;;8.93;8.63;;;9.80;99.90;;;;;;5004311;28;20236;-86
2022/09/18 07:13:16;;;;;;;8.77;8.57;;;9.80;99.90;;;;;;5004860;28;20228;-83
2022/09/18 07:18:48;;;;;;;9.00;8.70;;;9.80;99.90;;;;;;5004641;28;20228;-82
2022/09/18 07:21:19;;;;;;;8.60;8.40;;;9.90;99.90;;;;;;5004597;28;20240;-82
2022/09/18 07:23:46;;;;;;;9.00;8.70;;;9.90;99.90;;;;;;5004803;28;20225;-82
2022/09/18 07:26:18;;;;;;;9.20;8.90;;;9.90;99.90;;;;;;5003358;28;20305;-84
2022/09/18 07:28:56;;;;;;;8.97;8.67;;;9.90;99.90;;;;;;5003512;28;21112;-85
2022/09/18 07:31:28;;;;;;;8.97;8.67;;;9.90;99.90;;;;;;5003717;28;20232;-85
2022/09/18 07:33:56;;;;;;;9.17;8.87;;;10.00;99.90;;;;;;5003541;28;20263;-84
2022/09/18 07:36:44;;;;;;;8.97;8.67;;;10.00;99.90;;;;;;5003738;28;20298;-84
2022/09/18 07:39:20;;;;;;;9.13;8.83;;;10.00;99.90;;;;;;5004539;28;20229;-85
2022/09/18 07:41:50;;;;;;;9.00;8.70;;;10.00;99.90;;;;;;5004319;28;20232;-85
2022/09/18 07:47:15;;;;;;;8.70;8.50;;;10.00;99.90;;;;;;5003489;28;20237;-84
2022/09/18 07:49:53;;;;;;;9.27;8.97;;;10.00;99.90;;;;;;5005405;28;20225;-86
2022/09/18 07:52:23;;;;;;;9.10;8.80;;;10.00;99.90;;;;;;5005594;28;20302;-84
2022/09/18 07:55:02;;;;;;;8.90;8.60;;;10.00;99.90;;;;;;5004772;28;20279;-85
2022/09/18 07:57:38;;;;;;;9.20;8.90;;;10.00;99.90;;;;;;5004860;28;20253;-86
2022/09/18 08:00:15;;;;;;;9.27;8.97;;;10.00;99.90;;;;;;5005135;28;20404;-85
2022/09/18 08:02:48;;;;;;;8.90;8.60;;;10.00;99.90;;;;;;5004313;28;20232;-85
2022/09/18 08:05:24;;;;;;;8.70;8.50;;;10.10;99.90;;;;;;5004315;28;20262;-84
2022/09/18 08:07:55;;;;;;;8.93;8.63;;;10.10;99.90;;;;;;5004006;28;20283;-85
2022/09/18 08:10:24;;;;;;;8.90;8.60;;;10.10;99.90;;;;;;5004910;28;20225;-85
2022/09/18 08:12:54;;;;;;;8.80;8.60;;;10.00;99.90;;;;;;5004533;28;20228;-86
2022/09/18 08:15:34;;;;;;;8.67;8.47;;;10.00;99.90;;;;;;5003799;28;20233;-86
2022/09/18 08:18:02;;;;;;;8.90;8.70;;;10.00;99.90;;;;;;5003463;28;20286;-85
2022/09/18 08:20:30;;;;;;;9.10;8.80;;;10.00;99.90;;;;;;5003318;28;20221;-85
2022/09/18 08:22:58;;;;;;;9.13;8.83;;;10.00;99.90;;;;;;5004348;28;20244;-84
2022/09/18 08:25:27;;;;;;;9.00;8.70;;;10.10;99.90;;;;;;5004059;28;20253;-85
2022/09/18 08:28:00;;;;;;;9.10;8.80;;;10.00;99.90;;;;;;5003922;28;20245;-85
2022/09/18 08:30:38;;;;;;;9.10;8.80;;;10.10;99.90;;;;;;5004131;28;20268;-85
2022/09/18 08:33:08;;;;;;;9.00;8.70;;;10.10;99.90;;;;;;5004922;28;20236;-85
2022/09/18 08:35:36;;;;;;;8.70;8.50;;;10.20;99.90;;;;;;5004729;28;20259;-84
2022/09/18 08:38:09;;;;;;;8.83;8.60;;;10.20;99.90;;;;;;5007466;28;20222;-83
2022/09/18 08:41:03;;;;;;;8.70;8.50;;;10.20;99.90;;;;;;5003695;28;20241;-84
2022/09/18 08:43:59;;;;;;;8.67;8.47;;;10.30;99.90;;;;;;5003972;28;20304;-84
2022/09/18 08:46:37;;;;;;;8.97;8.67;;;10.30;99.90;;;;;;5004985;28;20228;-84
2022/09/18 08:49:25;;;;;;;8.70;8.50;;;10.30;99.90;;;;;;5016783;28;20212;-84
2022/09/18 08:52:03;;;;;;;8.43;8.23;;;10.40;99.90;;;;;;5007702;28;20231;-84
2022/09/18 08:54:49;;;;;;;8.40;8.20;;;10.40;99.90;;;;;;4999892;28;20243;-84
2022/09/18 08:57:26;;;;;;;8.40;8.20;;;10.50;99.90;;;;;;4999234;28;20256;-84
2022/09/18 09:00:07;;;;;;;8.27;8.07;;;10.50;99.90;;;;;;4999693;28;20259;-85
2022/09/18 09:03:00;;;;;;;8.17;7.97;;;10.60;99.90;;;;;;5000040;28;20232;-84
2022/09/18 09:05:39;;;;;;;8.00;7.80;;;10.70;99.90;;;;;;5000482;28;20344;-85
2022/09/18 09:09:04;;;;;;;8.20;8.00;;;10.80;99.90;;;;;;5000477;28;20294;-85
2022/09/18 09:11:49;;;;;;;8.40;8.20;;;10.80;99.90;;;;;;5000388;28;20232;-84
2022/09/18 09:14:37;;;;;;;8.33;8.13;;;10.90;99.90;;;;;;4999697;28;20229;-83
2022/09/18 09:17:13;;;;;;;8.50;8.30;;;11.00;99.90;;;;;;5000269;28;20247;-83
2022/09/18 09:20:10;;;;;;;8.53;8.33;;;11.20;99.90;;;;;;5000288;28;20285;-84
2022/09/18 09:25:43;;;;;;;8.37;8.17;;;11.40;99.90;;;;;;4999353;28;20217;-85
2022/09/18 09:28:21;;;;;;;8.30;8.10;;;11.40;99.90;;;;;;5028050;22;20240;-84
2022/09/18 09:30:59;;;;;;;8.30;8.10;;;11.50;99.90;;;;;;5024449;28;20986;-84
2022/09/18 09:33:39;;;;;;;8.30;8.10;;;11.60;99.90;;;;;;5024991;28;20229;-82
2022/09/18 09:36:15;;;;;;;8.13;7.93;;;11.70;99.90;;;;;;5024042;28;20231;-82
2022/09/18 09:38:54;;;;;;;8.37;8.17;;;11.80;99.90;;;;;;5025087;28;20255;-82
2022/09/18 09:41:34;;;;;;;8.30;8.10;;;11.80;99.90;;;;;;5024905;28;20243;-83
2022/09/18 09:44:29;;;;;;;8.47;8.27;;;11.80;99.90;;;;;;5024591;28;20331;-82
2022/09/18 09:47:06;;;;;;;8.33;8.13;;;12.00;99.90;;;;;;5025921;28;20230;-82
2022/09/18 09:49:46;;;;;;;8.70;8.50;;;12.00;99.90;;;;;;5025206;28;20238;-82
2022/09/18 09:52:22;;;;;;;8.53;8.33;;;12.10;99.90;;;;;;5026217;28;20258;-84
2022/09/18 09:54:54;;;;;;;8.63;8.43;;;12.10;99.90;;;;;;5024787;28;20231;-84
2022/09/18 09:57:30;;;;;;;8.47;8.27;;;12.10;99.90;;;;;;5024894;28;20239;-83
2022/09/18 10:00:10;;;;;;;8.30;8.10;;;12.20;99.90;;;;;;5024568;28;20239;-83
2022/09/18 10:03:03;;;;;;;8.60;8.40;;;12.30;99.90;;;;;;5024182;28;20292;-82
2022/09/18 10:05:43;;;;;;;8.83;8.63;;;12.40;99.90;;;;;;5024385;28;20270;-83
2022/09/18 10:08:21;;;;;;;8.60;8.40;;;12.50;99.90;;;;;;5024553;28;20225;-82
2022/09/18 10:10:59;;;;;;;8.73;8.53;;;12.40;99.90;;;;;;5028654;28;20220;-80
2022/09/18 10:13:37;;;;;;;9.10;8.80;;;12.40;99.90;;;;;;5029903;28;20259;-83
2022/09/18 10:16:14;;;;;;;9.10;8.80;;;12.30;99.90;;;;;;5028518;28;20292;-85
2022/09/18 10:18:45;;;;;;;8.73;8.53;;;12.20;99.90;;;;;;5031008;28;20313;-82
2022/09/18 10:21:16;;;;;;;8.77;8.57;;;12.10;99.90;;;;;;5027581;28;20228;-83
2022/09/18 10:23:54;;;;;;;8.97;8.77;;;12.10;99.90;;;;;;5025715;28;20272;-83
2022/09/18 10:26:31;;;;;;;8.77;8.57;;;12.10;99.90;;;;;;5027692;28;21137;-84
2022/09/18 10:29:01;;;;;;;8.90;8.70;;;12.10;99.90;;;;;;5026275;28;20232;-84
2022/09/18 10:31:48;;;;;;;9.17;8.87;;;12.20;99.90;;;;;;5031875;28;20232;-84
2022/09/18 10:34:44;;;;;;;8.73;8.53;;;12.20;99.90;;;;;;5030472;28;20232;-83
2022/09/18 10:37:19;;;;;;;9.07;8.80;;;12.10;99.90;;;;;;5025196;28;20244;-83
2022/09/18 10:40:01;;;;;;;9.00;8.70;;;12.20;99.90;;;;;;5026807;28;20234;-83
2022/09/18 10:42:32;;;;;;;8.67;8.47;;;12.20;99.90;;;;;;5027727;28;20240;-83
2022/09/18 10:45:08;;;;;;;8.73;8.53;;;12.30;99.90;;;;;;5026307;28;20259;-82
2022/09/18 10:47:38;;;;;;;8.90;8.70;;;12.30;99.90;;;;;;5025369;28;20331;-84
2022/09/18 10:50:18;;;;;;;9.00;8.80;;;12.40;99.90;;;;;;5025966;28;20320;-84
2022/09/18 10:52:47;;;;;;;8.63;8.43;;;12.30;99.90;;;;;;5026137;28;20236;-83
2022/09/18 10:55:25;;;;;;;8.83;8.63;;;12.30;99.90;;;;;;5024352;28;20259;-83
2022/09/18 10:58:11;;;;;;;8.70;8.50;;;12.10;99.90;;;;;;5024922;28;20220;-84
2022/09/18 11:00:51;;;;;;;8.97;8.77;;;12.10;99.90;;;;;;5024695;28;20232;-84
2022/09/18 11:03:45;;;;;;;8.70;8.50;;;11.90;99.90;;;;;;5024898;28;20251;-84
2022/09/18 11:06:23;;;;;;;8.80;8.60;;;11.80;99.90;;;;;;5024552;28;20236;-84
2022/09/18 11:08:55;;;;;;;8.60;8.40;;;11.80;99.90;;;;;;5025003;28;20250;-83
2022/09/18 11:11:32;;;;;;;8.30;8.10;;;11.70;99.90;;;;;;5025672;28;20236;-84
2022/09/18 11:14:03;;;;;;;8.30;8.10;;;11.70;99.90;;;;;;5028891;28;20228;-84
2022/09/18 11:16:40;;;;;;;8.27;8.07;;;11.70;99.90;;;;;;5025053;28;20281;-84
2022/09/18 11:19:17;;;;;;;8.60;8.40;;;11.70;99.90;;;;;;5024472;28;20224;-83
2022/09/18 11:21:47;;;;;;;8.47;8.27;;;11.60;99.90;;;;;;5024509;28;20333;-83
2022/09/18 11:24:25;;;;;;;8.20;8.00;;;11.60;99.90;;;;;;5024503;28;20228;-84
2022/09/18 11:27:03;;;;;;;8.30;8.10;;;11.60;99.90;;;;;;5024638;28;20297;-84
2022/09/18 11:29:33;;;;;;;8.20;8.00;;;11.50;99.90;;;;;;5023960;28;20242;-84
2022/09/18 11:32:12;;;;;;;8.60;8.40;;;11.50;99.90;;;;;;5023687;28;20281;-84
2022/09/18 11:34:49;;;;;;;8.30;8.10;;;11.60;99.90;;;;;;5023907;28;20232;-83
2022/09/18 11:37:28;;;;;;;8.30;8.10;;;11.70;99.90;;;;;;5024241;28;20235;-83
2022/09/18 11:40:06;;;;;;;8.20;8.00;;;11.70;99.90;;;;;;5024340;28;20288;-84
2022/09/18 11:42:43;;;;;;;8.40;8.20;;;11.80;99.90;;;;;;5025048;28;20228;-84
2022/09/18 11:45:40;;;;;;;8.50;8.30;;;11.90;99.90;;;;;;5024477;28;20236;-83
2022/09/18 11:48:26;;;;;;;8.50;8.30;;;11.90;99.90;;;;;;5023365;28;20235;-84
2022/09/18 11:50:57;;;;;;;8.50;8.30;;;12.00;99.90;;;;;;5023546;28;20245;-83
2022/09/18 11:53:33;;;;;;;8.40;8.20;;;12.10;99.90;;;;;;5024708;28;21042;-83
2022/09/18 11:56:11;;;;;;;8.30;8.10;;;12.00;99.90;;;;;;5024127;28;20240;-84
2022/09/18 11:58:50;;;;;;;8.50;8.30;;;12.10;99.90;;;;;;5025955;28;20322;-85
2022/09/18 12:01:30;;;;;;;8.70;8.50;;;12.10;99.90;;;;;;5025463;28;20224;-84
2022/09/18 12:04:07;;;;;;;8.90;8.70;;;12.30;99.90;;;;;;5026416;28;20239;-84
2022/09/18 12:06:47;;;;;;;8.60;8.40;;;12.40;99.90;;;;;;5026854;28;20234;-83
2022/09/18 12:09:23;;;;;;;8.90;8.70;;;12.40;99.90;;;;;;5027049;28;20264;-83
2022/09/18 12:12:01;;;;;;;9.13;8.83;;;12.40;99.90;;;;;;5027440;28;20255;-83
2022/09/18 12:14:42;;;;;;;8.90;8.70;;;12.50;99.90;;;;;;5030806;28;20255;-81
2022/09/18 12:17:18;;;;;;;9.07;8.80;;;12.60;99.90;;;;;;5035406;27;20250;-82
2022/09/18 12:19:50;;;;;;;9.20;8.90;;;12.50;99.90;;;;;;5036896;27;20232;-82
2022/09/18 12:22:26;;;;;;;8.67;8.47;;;12.60;99.90;;;;;;5037087;27;20212;-82
2022/09/18 12:24:54;;;;;;;8.90;8.70;;;12.60;99.90;;;;;;5036714;27;20223;-82
2022/09/18 12:27:35;;;;;;;8.73;8.53;;;12.60;99.90;;;;;;5036401;27;20258;-83
2022/09/18 12:30:13;;;;;;;8.70;8.50;;;12.60;99.90;;;;;;5036903;27;20259;-82
2022/09/18 12:33:20;;;;;;;8.80;8.60;;;12.60;99.90;;;;;;5037052;27;20218;-83
2022/09/18 12:36:14;;;;;;;8.80;8.60;;;12.70;99.90;;;;;;5035065;27;20215;-83
2022/09/18 12:39:00;;;;;;;8.90;8.70;;;12.80;99.90;;;;;;5034788;27;20231;-83
2022/09/18 12:41:50;;;;;;;9.17;8.87;;;12.70;99.90;;;;;;5033044;28;20246;-84
2022/09/18 12:44:43;;;;;;;8.70;8.50;;;12.60;99.90;;;;;;5031250;28;20232;-83
2022/09/18 12:47:49;;;;;;;9.10;8.80;;;12.60;99.90;;;;;;5034005;28;20276;-84
2022/09/18 12:50:46;;;;;;;8.80;8.60;;;12.60;99.90;;;;;;5035059;28;20244;-84
2022/09/18 12:53:39;;;;;;;9.20;8.90;;;12.60;99.90;;;;;;5034625;27;20244;-82
2022/09/18 12:56:35;;;;;;;9.00;8.80;;;12.60;99.90;;;;;;5033861;27;20244;-82
2022/09/18 12:59:41;;;;;;;9.00;8.70;;;12.70;99.90;;;;;;5034143;28;20204;-82
2022/09/18 13:02:27;;;;;;;8.70;8.50;;;12.80;99.90;;;;;;5035803;28;20224;-83
2022/09/18 13:05:06;;;;;;;9.10;8.80;;;12.80;99.90;;;;;;5037151;28;20291;-83
2022/09/18 13:07:45;;;;;;;9.13;8.83;;;12.80;99.90;;;;;;5037142;28;20235;-83
2022/09/18 13:10:22;;;;;;;9.40;9.10;;;12.90;99.90;;;;;;5026570;28;20330;-84
2022/09/18 13:13:00;;;;;;;9.10;8.80;;;13.00;99.90;;;;;;5027984;28;20295;-83
2022/09/18 13:15:39;;;;;;;9.40;9.10;;;13.10;99.90;;;;;;5025952;28;20232;-83
2022/09/18 13:18:26;;;;;;;9.50;9.20;;;13.10;99.90;;;;;;5024523;28;20287;-84
2022/09/18 13:20:56;;;;;;;9.20;8.90;;;13.20;99.90;;;;;;5025822;28;20228;-84
2022/09/18 13:23:27;;;;;;;9.37;9.07;;;13.30;99.90;;;;;;5024586;28;20259;-84
2022/09/18 13:25:56;;;;;;;9.43;9.13;;;13.20;99.90;;;;;;5024840;28;20268;-84
2022/09/18 13:28:26;;;;;;;9.13;8.83;;;13.30;99.90;;;;;;5023829;28;21023;-83
2022/09/18 13:31:28;;;;;;;8.80;8.60;;;13.20;99.90;;;;;;5024853;28;20227;-83
2022/09/18 13:34:07;;;;;;;9.10;8.80;;;13.10;99.90;;;;;;5022217;28;20228;-83
2022/09/18 13:36:37;;;;;;;9.17;8.87;;;13.00;99.90;;;;;;5024572;28;20263;-85
2022/09/18 13:39:15;;;;;;;8.83;8.63;;;12.90;99.90;;;;;;5028081;28;20295;-83
2022/09/18 13:44:30;;;;;;;9.47;9.17;;;12.90;99.90;;;;;;5024837;28;20281;-83
2022/09/18 13:47:09;;;;;;;9.40;9.10;;;12.90;99.90;;;;;;5024044;28;20279;-84
2022/09/18 13:49:48;;;;;;;9.47;9.17;;;12.90;99.90;;;;;;5024018;28;20267;-84
2022/09/18 13:52:42;;;;;;;9.50;9.20;;;13.00;99.90;;;;;;5024845;28;20227;-84
2022/09/18 13:55:37;;;;;;;9.40;9.10;;;13.00;99.90;;;;;;5022231;28;20235;-84
2022/09/18 13:58:43;;;;;;;9.40;9.10;;;13.00;99.90;;;;;;5026004;28;20308;-83